Time;durP1;ratioP1;P1;durP2;ratioP2;P2;SDS_P1;SDS_P2;PMS_P1;PMS_P2;Temp;Humidity;BMP_temperature;BMP_pressure;BME280_temperature;BME280_humidity;BME280_pressure;Samples;Min_cycle;Max_cycle;Signal;HPM_P1;HPM_P2
2022/09/04 00:01:20;;;;;;;13.13;12.13;;;;;;;14.27;100.00;93239.47;5030870;28;20227;-70
2022/09/04 00:03:53;;;;;;;13.90;12.80;;;;;;;14.29;100.00;93258.38;5031561;28;20201;-71
2022/09/04 00:06:22;;;;;;;13.43;12.23;;;;;;;14.33;100.00;93261.97;5031787;28;20197;-68
2022/09/04 00:08:56;;;;;;;13.87;12.67;;;;;;;14.39;100.00;93266.09;5031119;28;20266;-71
2022/09/04 00:11:29;;;;;;;12.60;11.70;;;;;;;14.31;100.00;93264.13;5031406;28;20199;-70
2022/09/04 00:13:59;;;;;;;13.20;12.13;;;;;;;14.25;100.00;93260.00;5038978;28;20238;-71
2022/09/04 00:16:53;;;;;;;12.70;11.70;;;;;;;14.21;100.00;93268.72;5038878;28;20197;-71
2022/09/04 00:19:24;;;;;;;12.77;11.40;;;;;;;14.17;100.00;93258.00;5049848;28;20234;-70
2022/09/04 00:21:53;;;;;;;13.70;12.37;;;;;;;14.13;100.00;93266.72;5050228;28;20178;-70
2022/09/04 00:24:23;;;;;;;11.47;10.63;;;;;;;14.06;100.00;93267.06;5051220;28;21002;-70
2022/09/04 00:27:15;;;;;;;11.93;10.93;;;;;;;14.07;100.00;93257.34;5039647;28;20191;-70
2022/09/04 00:30:14;;;;;;;12.47;11.20;;;;;;;14.05;100.00;93265.50;5022428;28;20233;-70
2022/09/04 00:33:04;;;;;;;12.47;11.47;;;;;;;14.12;100.00;93259.88;5030737;28;20222;-70
2022/09/04 00:35:35;;;;;;;12.03;11.03;;;;;;;14.09;100.00;93263.88;5031142;28;20741;-70
2022/09/04 00:38:12;;;;;;;11.80;11.00;;;;;;;14.15;100.00;93265.38;5011738;28;20175;-70
2022/09/04 00:40:41;;;;;;;13.83;12.83;;;;;;;14.08;100.00;93270.19;5012189;28;20234;-70
2022/09/04 00:43:43;;;;;;;13.60;12.50;;;;;;;14.05;100.00;93265.50;5031169;28;20167;-70
2022/09/04 00:46:48;;;;;;;12.83;11.73;;;;;;;14.03;100.00;93267.63;5030049;28;20210;-70
2022/09/04 00:49:51;;;;;;;11.90;11.00;;;;;;;13.92;100.00;93249.66;5029572;28;20235;-70
2022/09/04 00:52:19;;;;;;;12.97;12.03;;;;;;;13.98;100.00;93259.81;5044852;28;20217;-70
2022/09/04 00:55:00;;;;;;;14.17;13.13;;;;;;;14.03;100.00;93257.13;5047288;28;20218;-72
2022/09/04 00:57:50;;;;;;;13.27;12.10;;;;;;;13.80;100.00;93247.47;5030634;28;20191;-72
2022/09/04 01:00:21;;;;;;;13.50;12.40;;;;;;;13.88;100.00;93257.31;5029660;28;20282;-70
2022/09/04 01:03:06;;;;;;;13.37;12.30;;;;;;;14.03;100.00;93254.50;5030669;28;20198;-70
2022/09/04 01:05:50;;;;;;;13.37;12.23;;;;;;;13.94;100.00;93248.34;5030197;28;20249;-70
2022/09/04 01:08:35;;;;;;;13.07;11.97;;;;;;;13.95;100.00;93255.13;5010660;28;20231;-70
2022/09/04 01:11:25;;;;;;;12.77;11.63;;;;;;;13.99;100.00;93261.38;5013902;28;20241;-71
2022/09/04 01:14:00;;;;;;;12.83;11.83;;;;;;;13.92;100.00;93257.53;5009780;28;20223;-70
2022/09/04 01:16:44;;;;;;;12.43;11.53;;;;;;;13.75;100.00;93260.66;5018749;28;20187;-71
2022/09/04 01:19:29;;;;;;;13.10;12.20;;;;;;;13.73;100.00;93262.75;5030104;28;20946;-70
2022/09/04 01:21:57;;;;;;;13.83;12.73;;;;;;;13.79;100.00;93276.63;5040419;28;20193;-70
2022/09/04 01:24:36;;;;;;;13.77;12.77;;;;;;;13.82;100.00;93263.69;5049723;28;20228;-70
2022/09/04 01:27:16;;;;;;;12.77;11.87;;;;;;;13.78;100.00;93259.28;5036522;28;20178;-71
2022/09/04 01:29:42;;;;;;;13.23;12.03;;;;;;;13.76;100.00;93267.44;5029853;28;20238;-71
2022/09/04 01:32:24;;;;;;;12.50;11.50;;;;;;;13.79;100.00;93253.75;5029424;28;20313;-71
2022/09/04 01:35:04;;;;;;;12.27;11.37;;;;;;;13.77;100.00;93252.50;5029986;28;20238;-70
2022/09/04 01:37:51;;;;;;;13.17;11.80;;;;;;;13.64;100.00;93253.97;5045739;28;20189;-70
2022/09/04 01:40:33;;;;;;;11.73;10.83;;;;;;;13.42;100.00;93240.56;5049646;28;20221;-71
2022/09/04 01:43:05;;;;;;;13.30;12.20;;;;;;;13.57;100.00;93243.00;5010234;28;20211;-70
2022/09/04 01:46:06;;;;;;;13.63;12.53;;;;;;;13.60;100.00;93239.84;5010307;28;20231;-70
2022/09/04 01:48:42;;;;;;;13.30;12.30;;;;;;;13.60;100.00;93242.47;5010061;28;20234;-71
2022/09/04 01:51:52;;;;;;;13.13;11.87;;;;;;;13.56;100.00;93235.41;5015512;28;20881;-70
2022/09/04 01:54:23;;;;;;;13.57;12.33;;;;;;;13.57;100.00;93240.38;5029710;28;20230;-70
2022/09/04 01:56:49;;;;;;;13.37;12.23;;;;;;;13.62;100.00;93237.72;5038978;28;20724;-70
2022/09/04 01:59:28;;;;;;;13.00;11.90;;;;;;;13.62;100.00;93240.34;5049494;28;20227;-70
2022/09/04 02:02:08;;;;;;;13.40;12.17;;;;;;;13.60;100.00;93231.97;5037749;28;20289;-70
2022/09/04 02:04:49;;;;;;;12.23;11.23;;;;;;;13.62;100.00;93239.56;5029765;28;20246;-70
2022/09/04 02:07:23;;;;;;;13.37;12.17;;;;;;;13.60;100.00;93239.06;5029386;28;20250;-70
2022/09/04 02:10:10;;;;;;;12.47;11.53;;;;;;;13.25;100.00;93187.00;5029514;28;20233;-70
2022/09/04 02:12:40;;;;;;;13.37;12.37;;;;;;;13.63;100.00;93228.78;5029253;28;20191;-70
2022/09/04 02:15:14;;;;;;;12.77;11.67;;;;;;;13.62;100.00;93223.81;5029492;28;20966;-70
2022/09/04 02:18:01;;;;;;;13.03;12.00;;;;;;;13.64;100.00;93225.09;5046496;28;20186;-70
2022/09/04 02:20:29;;;;;;;13.03;11.70;;;;;;;13.60;100.00;93224.13;5048108;28;20236;-70
2022/09/04 02:23:13;;;;;;;13.37;12.17;;;;;;;13.60;100.00;93226.75;5029443;28;20179;-71
2022/09/04 02:26:02;;;;;;;13.73;12.63;;;;;;;13.50;100.00;93229.47;5031512;28;20242;-70
2022/09/04 02:28:36;;;;;;;12.97;11.87;;;;;;;13.53;100.00;93228.13;5033095;28;20215;-75
2022/09/04 02:31:16;;;;;;;13.00;12.10;;;;;;;13.59;100.00;93230.41;5037063;28;20205;-71
2022/09/04 02:34:11;;;;;;;13.33;12.23;;;;;;;13.47;100.00;93216.91;5043798;28;20178;-71
2022/09/04 02:36:52;;;;;;;13.23;12.03;;;;;;;13.17;100.00;93170.06;5042125;28;20186;-70
2022/09/04 02:39:35;;;;;;;12.60;11.60;;;;;;;13.54;100.00;93206.84;5053200;28;20217;-70
2022/09/04 02:42:31;;;;;;;13.57;12.53;;;;;;;13.59;100.00;93217.28;5040356;28;20186;-70
2022/09/04 02:45:08;;;;;;;13.70;12.60;;;;;;;13.44;100.00;93227.19;5033092;28;20254;-69
2022/09/04 02:47:51;;;;;;;13.13;12.03;;;;;;;13.45;100.00;93229.53;5033279;28;20217;-70
2022/09/04 02:50:49;;;;;;;12.10;11.10;;;;;;;13.42;100.00;93235.31;5033228;28;20233;-70
2022/09/04 02:53:51;;;;;;;12.50;11.33;;;;;;;13.42;100.00;93230.09;5013731;28;20183;-70
2022/09/04 02:56:34;;;;;;;11.27;10.27;;;;;;;13.28;100.00;93210.84;4999634;28;20250;-70
2022/09/04 02:59:18;;;;;;;13.47;12.10;;;;;;;13.34;100.00;93233.31;5017505;28;20238;-70
2022/09/04 03:01:58;;;;;;;13.10;12.03;;;;;;;13.16;100.00;93230.63;5042497;28;20217;-70
2022/09/04 03:04:59;;;;;;;12.63;11.63;;;;;;;13.19;100.00;93238.75;5052762;28;20256;-70
2022/09/04 03:07:30;;;;;;;13.37;12.17;;;;;;;13.32;100.00;93248.56;5009385;28;20242;-71
2022/09/04 03:10:17;;;;;;;13.03;11.93;;;;;;;13.22;100.00;93250.50;5032371;28;20223;-69
2022/09/04 03:12:59;;;;;;;12.93;11.90;;;;;;;13.11;100.00;93236.72;5050268;28;20178;-69
2022/09/04 03:15:34;;;;;;;13.37;12.27;;;;;;;13.17;100.00;93242.72;5052781;28;20225;-69
2022/09/04 03:18:30;;;;;;;12.03;11.10;;;;;;;13.17;100.00;93237.47;5052393;28;20201;-70
2022/09/04 03:21:02;;;;;;;13.37;12.20;;;;;;;13.08;100.00;93244.34;5051328;28;20209;-71
2022/09/04 03:24:03;;;;;;;12.13;11.03;;;;;;;13.07;100.00;93246.22;5052253;28;20221;-74
2022/09/04 03:26:34;;;;;;;13.80;12.63;;;;;;;12.77;100.00;93181.75;5044200;28;20194;-70
2022/09/04 03:29:50;;;;;;;12.90;11.90;;;;;;;13.14;100.00;93238.78;5031932;28;20229;-70
2022/09/04 03:32:32;;;;;;;13.57;12.43;;;;;;;13.15;100.00;93237.75;5037335;28;20212;-71
2022/09/04 03:35:11;;;;;;;14.27;12.97;;;;;;;12.87;100.00;93202.59;5032522;28;20234;-69
2022/09/04 03:37:37;;;;;;;13.93;12.73;;;;;;;13.14;100.00;93243.25;5031684;28;20213;-70
2022/09/04 03:40:21;;;;;;;14.20;13.00;;;;;;;13.19;100.00;93240.56;5032036;28;20227;-70
2022/09/04 03:42:52;;;;;;;13.90;12.67;;;;;;;13.19;100.00;93249.22;5031701;28;20230;-70
2022/09/04 03:45:34;;;;;;;14.60;13.30;;;;;;;13.26;100.00;93249.66;5032663;28;20317;-70
2022/09/04 03:48:19;;;;;;;15.77;14.30;;;;;;;13.26;100.00;93235.78;5032322;28;20214;-70
2022/09/04 03:51:09;;;;;;;16.40;14.47;;;;;;;13.37;100.00;93258.97;5032204;28;20226;-70
2022/09/04 03:53:58;;;;;;;15.03;13.53;;;;;;;13.37;100.00;93264.22;5051495;28;20194;-70
2022/09/04 03:57:01;;;;;;;15.90;14.23;;;;;;;13.50;100.00;93276.69;5044368;28;20190;-69
2022/09/04 03:59:33;;;;;;;16.97;15.30;;;;;;;13.55;100.00;93276.63;5031637;28;20234;-70
2022/09/04 04:02:07;;;;;;;16.53;15.03;;;;;;;13.46;100.00;93270.44;5031468;28;20179;-70
2022/09/04 04:04:51;;;;;;;15.10;13.37;;;;;;;13.61;100.00;93275.50;5031706;28;20234;-71
2022/09/04 04:07:55;;;;;;;17.40;13.47;;;;;;;13.39;100.00;93242.97;5045721;28;20236;-70
2022/09/04 04:10:51;;;;;;;15.40;13.90;;;;;;;13.67;100.00;93295.38;5009823;28;20942;-71
2022/09/04 04:13:46;;;;;;;16.17;13.70;;;;;;;13.69;100.00;93303.75;5031832;28;20221;-70
2022/09/04 04:16:30;;;;;;;18.83;14.10;;;;;;;13.65;100.00;93317.72;5036866;28;20217;-71
2022/09/04 04:19:20;;;;;;;21.27;14.53;;;;;;;13.66;100.00;93312.19;5050797;28;20311;-70
2022/09/04 04:22:07;;;;;;;16.20;14.53;;;;;;;13.71;100.00;93314.75;5040540;28;20217;-70
2022/09/04 04:24:46;;;;;;;16.93;14.30;;;;;;;13.67;100.00;93323.44;5030937;28;20226;-70
2022/09/04 04:27:45;;;;;;;19.20;13.77;;;;;;;13.69;100.00;93318.72;5031076;28;20732;-70
2022/09/04 04:30:16;;;;;;;15.33;13.83;;;;;;;13.66;100.00;93322.69;5031009;28;20225;-71
2022/09/04 04:33:10;;;;;;;15.37;13.83;;;;;;;13.74;100.00;93327.31;5031069;28;20186;-71
2022/09/04 04:35:51;;;;;;;18.90;14.77;;;;;;;13.82;100.00;93328.56;5030701;28;20258;-70
2022/09/04 04:38:24;;;;;;;14.70;13.40;;;;;;;13.75;100.00;93339.38;5031514;28;20179;-71
2022/09/04 04:41:23;;;;;;;16.30;13.83;;;;;;;13.42;100.00;93290.41;5032431;28;20237;-70
2022/09/04 04:44:19;;;;;;;14.87;13.37;;;;;;;13.81;100.00;93337.47;5033447;28;20246;-71
2022/09/04 04:47:14;;;;;;;14.87;13.37;;;;;;;13.95;100.00;93323.38;5031292;28;20194;-70
2022/09/04 04:50:03;;;;;;;15.80;13.03;;;;;;;14.08;100.00;93327.19;5030004;28;20230;-70
2022/09/04 04:52:34;;;;;;;14.07;12.77;;;;;;;14.06;100.00;93335.34;5046774;28;20179;-70
2022/09/04 04:55:20;;;;;;;15.47;13.67;;;;;;;14.22;100.00;93336.72;5050298;28;20222;-70
2022/09/04 04:58:02;;;;;;;15.50;14.00;;;;;;;14.26;100.00;93340.34;5050284;28;20205;-70
2022/09/04 05:00:46;;;;;;;15.80;14.07;;;;;;;14.51;100.00;93317.44;5049956;28;20256;-71
2022/09/04 05:03:31;;;;;;;16.73;13.33;;;;;;;14.69;100.00;93354.22;5011259;28;20194;-70
2022/09/04 05:06:13;;;;;;;16.83;15.13;;;;;;;14.73;100.00;93343.91;5014031;28;20218;-70
2022/09/04 05:08:53;;;;;;;15.97;14.33;;;;;;;14.91;100.00;93345.75;5030049;28;20245;-70
2022/09/04 05:11:31;;;;;;;18.00;15.03;;;;;;;15.16;100.00;93342.72;5096484;27;1293235;-71
2022/09/04 05:14:25;;;;;;;15.87;14.27;;;;;;;15.06;100.00;93321.84;5094688;28;20238;-70
2022/09/04 05:16:54;;;;;;;14.93;13.43;;;;;;;15.13;99.01;93306.47;5047612;28;20873;-70
2022/09/04 05:19:27;;;;;;;14.63;13.23;;;;;;;15.32;98.56;93326.38;5061093;28;20221;-70
2022/09/04 05:22:04;;;;;;;15.13;13.67;;;;;;;15.41;97.33;93327.31;5098530;28;20176;-70
2022/09/04 05:25:03;;;;;;;14.97;13.67;;;;;;;15.34;98.26;93340.03;5106633;28;20226;-70
2022/09/04 05:27:52;;;;;;;15.03;13.43;;;;;;;15.48;97.43;93340.88;5107276;28;20188;-70
2022/09/04 05:30:26;;;;;;;14.17;12.77;;;;;;;15.40;100.00;93351.28;5106973;28;20235;-68
2022/09/04 05:33:24;;;;;;;17.33;13.77;;;;;;;15.56;99.80;93340.22;5090087;28;20184;-70
2022/09/04 05:36:08;;;;;;;15.87;14.27;;;;;;;16.19;96.11;93348.22;5105613;28;20241;-71
2022/09/04 05:38:44;;;;;;;15.27;13.93;;;;;;;16.36;94.56;93342.34;5106918;28;20196;-72
2022/09/04 05:41:14;;;;;;;14.67;13.33;;;;;;;16.57;93.20;93344.28;5105815;28;20200;-72
2022/09/04 05:43:51;;;;;;;14.43;13.33;;;;;;;16.39;93.89;93352.31;5106850;28;20187;-70
2022/09/04 05:46:25;;;;;;;15.00;13.70;;;;;;;16.44;94.37;93357.44;5105348;28;20188;-70
2022/09/04 05:49:02;;;;;;;15.20;13.97;;;;;;;16.80;92.01;93356.44;5106511;28;20235;-71
2022/09/04 05:51:41;;;;;;;14.93;13.63;;;;;;;17.03;91.04;93355.34;5099100;28;20216;-70
2022/09/04 05:54:09;;;;;;;14.20;12.90;;;;;;;16.88;91.46;93350.44;5085226;28;20284;-72
2022/09/04 05:56:44;;;;;;;15.03;13.73;;;;;;;16.99;91.93;93351.78;5095463;28;20176;-71
2022/09/04 05:59:33;;;;;;;15.63;14.27;;;;;;;17.18;89.62;93346.31;5106204;28;20238;-71
2022/09/04 06:02:17;;;;;;;15.60;14.10;;;;;;;16.38;94.10;93348.09;5099500;28;20191;-70
2022/09/04 06:05:07;;;;;;;15.53;14.13;;;;;;;16.39;94.48;93336.47;5086114;28;20240;-70
2022/09/04 06:07:56;;;;;;;16.40;14.90;;;;;;;16.80;91.92;93329.25;5086494;28;20185;-70
2022/09/04 06:10:34;;;;;;;16.97;14.17;;;;;;;16.83;91.47;93321.53;5084480;28;20241;-70
2022/09/04 06:13:19;;;;;;;15.47;14.03;;;;;;;16.88;92.12;93318.78;5099135;28;20176;-70
2022/09/04 06:15:53;;;;;;;16.90;15.23;;;;;;;16.68;92.50;93327.16;5104207;28;20227;-69
2022/09/04 06:18:30;;;;;;;14.67;13.20;;;;;;;16.94;91.14;93330.78;5086376;28;20181;-70
2022/09/04 06:21:11;;;;;;;16.37;14.60;;;;;;;16.85;93.21;93339.69;5082689;28;20221;-71
2022/09/04 06:23:55;;;;;;;16.80;15.10;;;;;;;17.11;92.22;93341.44;5072514;28;20182;-71
2022/09/04 06:26:36;;;;;;;16.17;14.57;;;;;;;17.04;90.99;93329.75;5078274;28;20200;-70
2022/09/04 06:29:52;;;;;;;16.83;15.17;;;;;;;17.03;90.84;93326.34;5091972;28;20228;-71
2022/09/04 06:32:51;;;;;;;16.50;14.80;;;;;;;16.64;94.04;93331.47;5030455;28;20190;-70
2022/09/04 06:35:19;;;;;;;16.90;15.03;;;;;;;17.15;90.95;93339.75;5030405;28;20302;-71
2022/09/04 06:38:13;;;;;;;14.43;13.10;;;;;;;16.60;94.37;93330.50;5074331;28;20205;-69
2022/09/04 06:40:54;;;;;;;16.27;14.60;;;;;;;17.28;89.76;93330.22;5090847;28;20243;-70
2022/09/04 06:43:46;;;;;;;14.27;12.30;;;;;;;17.04;89.32;93340.31;5093000;28;20187;-70
2022/09/04 06:46:27;;;;;;;13.40;12.30;;;;;;;17.49;87.65;93342.63;5091778;28;20219;-69
2022/09/04 06:49:13;;;;;;;13.90;12.67;;;;;;;17.53;86.92;93340.97;5091901;28;20236;-70
2022/09/04 06:52:16;;;;;;;12.57;11.57;;;;;;;17.39;85.53;93347.38;5091932;28;20208;-69
2022/09/04 06:54:41;;;;;;;12.93;11.73;;;;;;;17.18;87.90;93352.34;5090798;28;20236;-71
2022/09/04 06:57:52;;;;;;;13.47;12.47;;;;;;;17.56;85.68;93353.56;5079242;28;20186;-72
2022/09/04 07:00:18;;;;;;;13.30;11.93;;;;;;;17.82;85.16;93353.69;5056121;28;20241;-70
2022/09/04 07:03:21;;;;;;;13.63;12.30;;;;;;;17.95;83.44;93344.09;5090051;28;20342;-70
2022/09/04 07:06:14;;;;;;;13.53;12.23;;;;;;;18.04;84.02;93337.00;5091382;28;20257;-70
2022/09/04 07:08:54;;;;;;;14.10;12.80;;;;;;;17.86;83.84;93345.94;5091772;28;20245;-70
2022/09/04 07:11:41;;;;;;;13.77;12.53;;;;;;;17.97;84.71;93334.78;5091327;28;20276;-70
2022/09/04 07:14:26;;;;;;;14.57;13.27;;;;;;;18.09;83.88;93334.19;5071469;28;20643;-70
2022/09/04 07:17:22;;;;;;;15.27;13.77;;;;;;;17.95;85.97;93338.81;5072124;28;20185;-70
2022/09/04 07:19:50;;;;;;;14.73;13.33;;;;;;;18.21;84.83;93347.63;5071568;28;20301;-70
2022/09/04 07:22:34;;;;;;;14.33;13.00;;;;;;;18.35;84.85;93353.56;5086032;28;20668;-70
2022/09/04 07:25:10;;;;;;;15.47;14.07;;;;;;;18.38;84.97;93345.81;5091351;28;20223;-70
2022/09/04 07:27:54;;;;;;;14.57;13.17;;;;;;;18.23;86.03;93324.28;5074710;28;20260;-72
2022/09/04 07:30:24;;;;;;;15.00;13.60;;;;;;;18.23;84.26;93313.72;5089119;28;20245;-69
2022/09/04 07:32:56;;;;;;;14.20;12.90;;;;;;;18.38;83.62;93321.25;5073872;28;20182;-70
2022/09/04 07:35:53;;;;;;;13.70;12.50;;;;;;;18.56;83.81;93343.97;5091047;28;20887;-69
2022/09/04 07:38:47;;;;;;;13.83;12.60;;;;;;;18.38;85.49;93350.34;5071863;28;20213;-70
2022/09/04 07:41:23;;;;;;;12.67;11.63;;;;;;;18.51;80.96;93344.13;5071557;28;20226;-70
2022/09/04 07:43:56;;;;;;;13.73;12.30;;;;;;;18.49;82.41;93354.25;5087773;28;20228;-70
2022/09/04 07:46:33;;;;;;;15.37;12.70;;;;;;;17.96;85.19;93341.16;5090944;28;20208;-70
2022/09/04 07:49:09;;;;;;;12.90;11.90;;;;;;;18.38;83.42;93359.03;5090866;28;20220;-71
2022/09/04 07:52:22;;;;;;;13.97;12.57;;;;;;;18.66;82.66;93365.63;5082345;28;20219;-70
2022/09/04 07:54:59;;;;;;;14.00;12.80;;;;;;;18.49;83.65;93375.41;5048089;28;20238;-70
2022/09/04 07:57:40;;;;;;;13.70;12.37;;;;;;;18.86;81.80;93356.31;5075506;28;20250;-70
2022/09/04 08:00:17;;;;;;;14.73;13.33;;;;;;;19.11;78.16;93382.78;5070266;28;20885;-70
2022/09/04 08:03:01;;;;;;;12.87;11.80;;;;;;;18.97;77.45;93386.69;5087427;28;20202;-70
2022/09/04 08:05:32;;;;;;;13.50;12.30;;;;;;;18.29;81.51;93378.59;5090443;28;20227;-70
2022/09/04 08:08:23;;;;;;;12.13;11.17;;;;;;;18.93;76.95;93385.72;5070899;28;20461;-71
2022/09/04 08:11:15;;;;;;;13.37;12.33;;;;;;;18.90;78.33;93394.28;5072523;28;20240;-71
2022/09/04 08:13:58;;;;;;;12.20;11.27;;;;;;;18.84;78.85;93393.69;5090417;28;20182;-70
2022/09/04 08:16:43;;;;;;;12.37;11.40;;;;;;;19.14;78.49;93374.22;5090408;28;20179;-71
2022/09/04 08:19:18;;;;;;;13.10;12.10;;;;;;;19.12;76.79;93386.22;5090429;28;20233;-70
2022/09/04 08:21:47;;;;;;;11.90;11.00;;;;;;;19.50;73.54;93403.06;5080621;28;20212;-70
2022/09/04 08:24:31;;;;;;;11.67;10.77;;;;;;;19.25;76.00;93392.44;5070142;28;20223;-72
2022/09/04 08:27:08;;;;;;;11.47;10.57;;;;;;;19.56;72.48;93391.22;5069537;28;20203;-70
2022/09/04 08:30:09;;;;;;;11.33;10.60;;;;;;;19.53;69.30;93406.94;5070256;28;20253;-70
2022/09/04 08:32:58;;;;;;;10.97;10.17;;;;;;;19.14;72.09;93391.97;5087642;28;20189;-70
2022/09/04 08:35:41;;;;;;;11.20;10.33;;;;;;;19.00;73.91;93396.66;5069122;28;20218;-70
2022/09/04 08:38:22;;;;;;;11.33;10.43;;;;;;;19.49;71.94;93398.84;5070804;28;20182;-71
2022/09/04 08:41:09;;;;;;;11.97;11.07;;;;;;;19.96;70.26;93395.16;5070066;28;20287;-70
2022/09/04 08:43:56;;;;;;;10.80;9.90;;;;;;;19.97;70.98;93391.41;5069819;28;20195;-71
2022/09/04 08:46:43;;;;;;;11.23;10.43;;;;;;;20.10;70.07;93398.38;5069482;28;20192;-70
2022/09/04 08:49:25;;;;;;;11.47;10.53;;;;;;;20.15;72.02;93395.59;5069699;28;20284;-71
2022/09/04 08:52:28;;;;;;;11.53;10.67;;;;;;;20.48;70.78;93393.88;5075095;28;20259;-70
2022/09/04 08:55:03;;;;;;;12.48;11.38;;;;;;;20.51;69.70;93384.50;5069417;28;20246;-70
2022/09/04 08:57:28;;;;;;;11.32;10.43;;;;;;;20.50;70.49;93383.72;5070512;28;20179;-71
2022/09/04 09:00:15;;;;;;;13.83;11.90;;;;;;;20.48;70.55;93383.25;5068384;28;20231;-71
2022/09/04 09:02:56;;;;;;;12.05;11.00;;;;;;;20.37;69.76;93391.91;5069975;28;20186;-71
2022/09/04 09:05:24;;;;;;;13.00;11.80;;;;;;;20.10;70.60;93387.00;5069770;28;20232;-69
2022/09/04 09:08:11;;;;;;;12.80;11.07;;;;;;;20.19;71.40;93383.25;5089241;28;20203;-71
2022/09/04 09:10:37;;;;;;;12.80;11.63;;;;;;;20.13;71.27;93381.88;5089058;28;20247;-70
2022/09/04 09:13:24;;;;;;;13.50;12.20;;;;;;;20.21;71.67;93396.97;5069348;28;20247;-70
2022/09/04 09:16:16;;;;;;;12.63;11.65;;;;;;;20.49;71.13;93392.00;5069568;28;20265;-70
2022/09/04 09:19:09;;;;;;;13.17;12.07;;;;;;;20.50;70.11;93383.72;5068875;28;20184;-70
2022/09/04 09:21:48;;;;;;;12.77;11.57;;;;;;;20.69;69.43;93385.97;5078749;28;20189;-71
2022/09/04 09:24:37;;;;;;;13.65;12.55;;;;;;;20.27;70.47;93387.75;5089800;28;20227;-70
2022/09/04 09:27:21;;;;;;;13.88;12.73;;;;;;;20.52;70.42;93378.88;5089667;28;20211;-70
2022/09/04 09:30:35;;;;;;;13.57;12.27;;;;;;;20.80;69.54;93378.41;5089610;28;20231;-70
2022/09/04 09:33:19;;;;;;;12.80;11.68;;;;;;;20.89;68.42;93371.19;5056041;28;20215;-70
2022/09/04 09:36:35;;;;;;;12.35;11.20;;;;;;;20.94;69.60;93371.75;5086492;28;20227;-72
2022/09/04 09:39:34;;;;;;;12.63;11.48;;;;;;;21.27;69.35;93379.81;5043669;28;20317;-70
2022/09/04 09:42:12;;;;;;;12.48;11.40;;;;;;;21.44;66.90;93377.78;5081379;28;20191;-70
2022/09/04 09:45:13;;;;;;;12.27;11.15;;;;;;;21.57;67.50;93379.38;5089767;28;20233;-71
2022/09/04 09:48:09;;;;;;;13.20;12.10;;;;;;;21.52;65.29;93384.91;5089026;28;20198;-70
2022/09/04 09:50:47;;;;;;;12.95;11.85;;;;;;;21.37;66.12;93372.22;5089370;28;20242;-70
2022/09/04 09:53:30;;;;;;;11.35;10.45;;;;;;;21.49;64.21;93376.81;5088705;28;20239;-70
2022/09/04 09:56:25;;;;;;;12.55;11.50;;;;;;;21.38;66.35;93376.44;5089092;28;20204;-70
2022/09/04 09:58:50;;;;;;;11.63;10.73;;;;;;;21.50;65.39;93367.72;5091763;28;20231;-70
2022/09/04 10:01:50;;;;;;;11.77;10.80;;;;;;;21.10;66.74;93356.81;5093269;28;20232;-70
2022/09/04 10:04:28;;;;;;;11.82;10.82;;;;;;;20.93;67.62;93343.66;5092926;28;20231;-71
2022/09/04 10:07:20;;;;;;;12.48;11.43;;;;;;;21.63;65.41;93369.31;5082008;28;20185;-68
2022/09/04 10:09:57;;;;;;;11.35;10.52;;;;;;;21.51;65.47;93364.72;5072672;28;20242;-70
2022/09/04 10:12:50;;;;;;;11.73;10.93;;;;;;;21.69;63.08;93368.00;5079278;28;20195;-70
2022/09/04 10:15:53;;;;;;;11.02;10.15;;;;;;;21.58;64.61;93358.88;5071718;28;20233;-70
2022/09/04 10:18:52;;;;;;;13.27;10.40;;;;;;;21.75;63.12;93326.84;5073514;28;20186;-70
2022/09/04 10:21:37;;;;;;;15.25;9.85;;;;;;;22.14;63.20;93358.94;5073015;28;20220;-71
2022/09/04 10:24:34;;;;;;;11.57;10.73;;;;;;;21.85;65.64;93347.72;5072241;28;20241;-70
2022/09/04 10:27:31;;;;;;;12.65;11.60;;;;;;;22.10;60.89;93346.66;5083045;28;20216;-71
2022/09/04 10:30:14;;;;;;;12.38;11.38;;;;;;;21.88;61.55;93355.78;5092341;28;20239;-70
2022/09/04 10:33:03;;;;;;;10.85;10.05;;;;;;;21.72;63.63;93346.88;5075985;28;20185;-70
2022/09/04 10:35:52;;;;;;;10.45;9.55;;;;;;;22.18;61.91;93345.72;5092515;28;20251;-70
2022/09/04 10:38:36;;;;;;;10.80;9.98;;;;;;;22.00;62.36;93315.94;5072869;28;20184;-72
2022/09/04 10:41:14;;;;;;;11.23;10.43;;;;;;;22.14;62.88;93343.00;5072328;28;20236;-71
2022/09/04 10:44:03;;;;;;;11.07;10.27;;;;;;;21.98;62.21;93346.59;5087889;28;20172;-69
2022/09/04 10:47:05;;;;;;;11.93;10.80;;;;;;;22.49;62.19;93337.97;5092299;28;20192;-70
2022/09/04 10:49:37;;;;;;;12.18;11.07;;;;;;;22.35;61.50;93336.78;5092555;28;20265;-71
2022/09/04 10:52:34;;;;;;;12.30;11.40;;;;;;;22.18;62.73;93335.09;5092413;28;20182;-70
2022/09/04 10:55:16;;;;;;;11.63;10.77;;;;;;;22.16;61.20;93335.44;5092111;28;20222;-70
2022/09/04 10:57:58;;;;;;;11.93;10.93;;;;;;;21.96;61.80;93324.91;5073242;28;20283;-70
2022/09/04 11:00:48;;;;;;;11.65;10.82;;;;;;;21.95;62.16;93326.00;5071939;28;20249;-71
2022/09/04 11:04:00;;;;;;;11.18;10.35;;;;;;;22.57;60.22;93323.81;5044409;28;20214;-71
2022/09/04 11:07:03;;;;;;;11.10;10.30;;;;;;;22.70;59.18;93321.91;5050351;28;20215;-70
2022/09/04 11:09:44;;;;;;;12.63;11.63;;;;;;;22.49;59.36;93319.34;5071884;28;20224;-71
2022/09/04 11:12:27;;;;;;;13.00;11.90;;;;;;;22.68;60.21;93314.25;5077764;28;20184;-72
2022/09/04 11:15:17;;;;;;;10.85;10.07;;;;;;;22.82;58.67;93314.66;5091587;28;20223;-70
2022/09/04 11:17:45;;;;;;;11.45;10.55;;;;;;;23.06;56.77;93316.50;5091827;28;20195;-70
2022/09/04 11:20:49;;;;;;;11.18;10.38;;;;;;;22.88;57.72;93321.31;5090793;28;20306;-70
2022/09/04 11:23:35;;;;;;;11.40;10.50;;;;;;;22.93;57.98;93309.66;5071920;28;20209;-70
2022/09/04 11:26:28;;;;;;;10.70;9.90;;;;;;;22.82;57.35;93309.34;5071992;28;20215;-71
2022/09/04 11:29:18;;;;;;;11.13;10.23;;;;;;;22.89;57.26;93314.91;5071431;28;20280;-70
2022/09/04 11:32:05;;;;;;;11.00;9.98;;;;;;;23.01;57.87;93309.53;5072037;28;20187;-70
2022/09/04 11:35:05;;;;;;;11.57;10.50;;;;;;;22.94;58.44;93305.88;5087192;28;20234;-70
2022/09/04 11:37:49;;;;;;;10.65;9.95;;;;;;;23.08;57.50;93315.03;5075163;28;20187;-71
2022/09/04 11:40:31;;;;;;;10.82;9.93;;;;;;;22.76;57.07;93300.03;5070226;28;20259;-71
2022/09/04 11:43:18;;;;;;;10.88;10.02;;;;;;;23.16;57.54;93302.72;5080476;28;20192;-70
2022/09/04 11:45:50;;;;;;;11.48;10.57;;;;;;;23.39;56.98;93301.84;5069931;28;20285;-70
2022/09/04 11:48:28;;;;;;;9.60;9.00;;;;;;;23.49;56.20;93303.25;5071834;28;20193;-71
2022/09/04 11:51:18;;;;;;;11.35;10.35;;;;;;;22.99;56.61;93309.06;5071059;28;20208;-70
2022/09/04 11:54:03;;;;;;;11.52;10.63;;;;;;;22.94;57.95;93298.66;5070231;28;20271;-70
2022/09/04 11:57:03;;;;;;;11.65;10.65;;;;;;;23.17;55.93;93294.38;5078973;28;20190;-71
2022/09/04 11:59:38;;;;;;;10.30;9.50;;;;;;;23.13;56.80;93271.41;5090574;28;20249;-70
2022/09/04 12:02:21;;;;;;;11.75;10.60;;;;;;;23.10;58.56;93283.50;5078327;28;20183;-71
2022/09/04 12:05:05;;;;;;;11.02;10.05;;;;;;;22.68;58.85;93284.97;5070437;28;20236;-71
2022/09/04 12:07:39;;;;;;;11.38;10.43;;;;;;;23.29;57.86;93274.91;5071325;28;20180;-72
2022/09/04 12:10:15;;;;;;;12.32;11.32;;;;;;;23.32;58.11;93280.34;5075819;28;20231;-70
2022/09/04 12:12:56;;;;;;;13.10;11.75;;;;;;;23.15;55.46;93274.50;5086195;28;20182;-70
2022/09/04 12:15:30;;;;;;;10.90;10.10;;;;;;;23.43;55.76;93269.97;5070711;28;20220;-70
2022/09/04 12:18:02;;;;;;;11.00;9.95;;;;;;;23.51;55.04;93282.34;5089698;28;20754;-71
2022/09/04 12:20:37;;;;;;;10.70;9.90;;;;;;;23.53;53.70;93270.22;5088888;28;20261;-71
2022/09/04 12:23:19;;;;;;;10.13;9.23;;;;;;;23.07;56.36;93260.22;5070634;28;20167;-71
2022/09/04 12:26:22;;;;;;;11.05;10.23;;;;;;;23.43;55.39;93273.41;5070337;28;20223;-70
2022/09/04 12:29:41;;;;;;;10.85;9.95;;;;;;;23.59;56.04;93271.53;5070086;28;20935;-70
2022/09/04 12:32:14;;;;;;;10.00;9.30;;;;;;;23.90;54.15;93276.13;5041461;28;20205;-71